Time;durP1;ratioP1;P1;durP2;ratioP2;P2;SDS_P1;SDS_P2;PMS_P1;PMS_P2;Temp;Humidity;BMP_temperature;BMP_pressure;BME280_temperature;BME280_humidity;BME280_pressure;Samples;Min_cycle;Max_cycle;Signal;HPM_P1;HPM_P2
2021/10/12 00:02:26;;;;;;;4.85;3.20;;;14.00;96.70;;;;;;5082547;28;20040;-77
2021/10/12 00:04:54;;;;;;;4.15;2.75;;;13.90;96.70;;;;;;5087126;28;20132;-78
2021/10/12 00:07:22;;;;;;;5.05;2.65;;;13.90;96.70;;;;;;5085718;28;20048;-78
2021/10/12 00:09:49;;;;;;;5.35;2.95;;;13.90;96.70;;;;;;5090610;28;20063;-77
2021/10/12 00:12:17;;;;;;;4.70;3.00;;;13.80;96.70;;;;;;5072315;28;20056;-77
2021/10/12 00:14:45;;;;;;;4.55;2.63;;;13.90;96.70;;;;;;5070295;28;20036;-77
2021/10/12 00:17:13;;;;;;;3.70;2.33;;;13.90;96.70;;;;;;5086705;28;20063;-76
2021/10/12 00:19:42;;;;;;;3.92;2.45;;;13.80;96.70;;;;;;5069574;28;20039;-77
2021/10/12 00:22:10;;;;;;;4.00;2.10;;;13.70;96.70;;;;;;5092074;28;20048;-77
2021/10/12 00:24:38;;;;;;;3.90;2.42;;;13.70;96.70;;;;;;5073911;28;20043;-77
2021/10/12 00:27:06;;;;;;;3.92;2.00;;;13.70;96.70;;;;;;5081220;28;20139;-78
2021/10/12 00:29:34;;;;;;;3.85;2.05;;;13.70;96.70;;;;;;5083029;28;20031;-77
2021/10/12 00:32:02;;;;;;;4.00;2.08;;;13.70;96.70;;;;;;5086881;28;20039;-77
2021/10/12 00:34:30;;;;;;;2.97;1.95;;;13.80;96.70;;;;;;5094926;28;20097;-77
2021/10/12 00:36:59;;;;;;;3.17;2.33;;;13.70;96.70;;;;;;5093267;28;20155;-77
2021/10/12 00:39:27;;;;;;;3.53;2.05;;;13.70;96.70;;;;;;5087118;28;20036;-77
2021/10/12 00:41:57;;;;;;;3.88;2.38;;;13.80;96.70;;;;;;5085374;28;20032;-77
2021/10/12 00:44:30;;;;;;;3.95;2.20;;;13.90;96.70;;;;;;5081030;28;20119;-77
2021/10/12 00:46:58;;;;;;;2.72;2.05;;;13.80;96.70;;;;;;5083663;28;20043;-78
2021/10/12 00:49:26;;;;;;;5.72;2.50;;;13.70;96.70;;;;;;5088993;28;20059;-78
2021/10/12 00:51:54;;;;;;;3.35;2.10;;;13.60;96.70;;;;;;5077764;28;20053;-78
2021/10/12 00:54:23;;;;;;;4.78;1.83;;;13.70;96.70;;;;;;5089512;28;20550;-78
2021/10/12 00:56:51;;;;;;;2.50;1.80;;;13.70;96.70;;;;;;5075062;28;20064;-78
2021/10/12 00:59:19;;;;;;;3.42;2.47;;;13.60;96.70;;;;;;5075468;28;20139;-78
2021/10/12 01:01:47;;;;;;;4.78;2.10;;;13.60;96.70;;;;;;5094807;28;20036;-78
2021/10/12 01:04:15;;;;;;;3.30;2.15;;;13.60;96.70;;;;;;5091784;28;20104;-78
2021/10/12 01:06:43;;;;;;;3.97;2.03;;;13.50;96.70;;;;;;5083993;28;20097;-78
2021/10/12 01:09:10;;;;;;;3.53;2.05;;;13.50;96.70;;;;;;5089515;28;20109;-78
2021/10/12 01:11:39;;;;;;;3.75;2.00;;;13.50;96.70;;;;;;5086006;28;20028;-78
2021/10/12 01:14:07;;;;;;;6.28;2.10;;;13.60;96.70;;;;;;5084697;28;20043;-77
2021/10/12 01:16:35;;;;;;;4.20;1.98;;;13.60;96.70;;;;;;5089729;28;20039;-78
2021/10/12 01:19:05;;;;;;;5.63;2.00;;;13.50;96.70;;;;;;5089022;28;20043;-77
2021/10/12 01:21:40;;;;;;;3.70;1.80;;;13.50;96.70;;;;;;5101123;28;20044;-78
2021/10/12 01:24:08;;;;;;;3.95;2.20;;;13.50;96.70;;;;;;5095413;28;20059;-78
2021/10/12 01:26:38;;;;;;;3.38;2.05;;;13.50;96.70;;;;;;5085058;28;20040;-75
2021/10/12 01:29:07;;;;;;;2.97;2.00;;;13.30;96.70;;;;;;5092449;28;20045;-76
2021/10/12 01:31:34;;;;;;;2.63;2.03;;;13.10;96.70;;;;;;5085750;28;20047;-76
2021/10/12 01:34:10;;;;;;;2.72;1.83;;;13.00;96.70;;;;;;5089169;28;20494;-76
2021/10/12 01:36:40;;;;;;;2.13;1.83;;;13.00;96.70;;;;;;5100604;28;20596;-75
2021/10/12 01:39:08;;;;;;;3.35;2.03;;;13.10;96.70;;;;;;5086844;28;20108;-76
2021/10/12 01:41:36;;;;;;;2.10;1.60;;;13.20;96.70;;;;;;5090499;28;20101;-76
2021/10/12 01:44:04;;;;;;;3.70;2.15;;;13.10;96.70;;;;;;5095369;28;20081;-76
2021/10/12 01:46:37;;;;;;;3.35;2.05;;;12.90;96.70;;;;;;5079652;28;20040;-75
2021/10/12 01:49:05;;;;;;;4.38;2.08;;;12.90;96.70;;;;;;5089162;28;20032;-75
2021/10/12 01:51:33;;;;;;;3.67;1.92;;;12.90;96.70;;;;;;5082361;28;20543;-75
2021/10/12 01:54:12;;;;;;;2.85;1.90;;;13.00;96.70;;;;;;5096640;28;20130;-76
2021/10/12 01:56:40;;;;;;;2.60;2.00;;;13.10;96.70;;;;;;5081795;28;20058;-75
2021/10/12 01:59:08;;;;;;;2.33;1.60;;;13.00;96.70;;;;;;5092722;28;20040;-75
2021/10/12 02:01:36;;;;;;;4.05;2.20;;;13.10;96.70;;;;;;5094912;28;20055;-76
2021/10/12 02:04:04;;;;;;;3.20;1.98;;;13.20;96.70;;;;;;5085922;28;20509;-75
2021/10/12 02:06:32;;;;;;;3.53;2.10;;;13.10;96.70;;;;;;5088841;28;20040;-75
2021/10/12 02:08:59;;;;;;;2.35;1.80;;;13.20;96.70;;;;;;5087041;28;20131;-76
2021/10/12 02:11:29;;;;;;;2.72;1.83;;;13.20;96.70;;;;;;5089756;28;20044;-75
2021/10/12 02:13:57;;;;;;;2.40;1.77;;;13.20;96.70;;;;;;5070529;28;20042;-76
2021/10/12 02:16:25;;;;;;;4.50;2.17;;;13.20;96.70;;;;;;5076553;28;20040;-75
2021/10/12 02:18:52;;;;;;;3.33;1.75;;;13.10;96.70;;;;;;5090870;28;20036;-76
2021/10/12 02:21:20;;;;;;;3.97;2.00;;;13.10;96.70;;;;;;5088635;28;20082;-76
2021/10/12 02:23:48;;;;;;;2.45;1.48;;;13.00;96.70;;;;;;5096704;28;20046;-76
2021/10/12 02:26:15;;;;;;;2.20;1.50;;;12.90;96.70;;;;;;5089784;28;20505;-76
2021/10/12 02:28:45;;;;;;;2.38;1.73;;;12.90;96.70;;;;;;5081504;28;20040;-76
2021/10/12 02:31:12;;;;;;;2.10;1.63;;;12.80;96.70;;;;;;5090783;28;20058;-76
2021/10/12 02:33:40;;;;;;;3.15;1.80;;;12.90;96.70;;;;;;5090962;28;20606;-76
2021/10/12 02:36:08;;;;;;;3.13;1.90;;;12.90;96.70;;;;;;5080278;28;20813;-75
2021/10/12 02:38:37;;;;;;;3.60;2.28;;;12.90;96.70;;;;;;5092171;28;20130;-76
2021/10/12 02:41:06;;;;;;;2.40;1.73;;;12.90;96.70;;;;;;5091179;28;20449;-76
2021/10/12 02:43:35;;;;;;;3.92;1.95;;;12.80;96.70;;;;;;5086012;28;20055;-76
2021/10/12 02:46:05;;;;;;;3.25;2.00;;;12.70;96.70;;;;;;5089736;28;20058;-76
2021/10/12 02:48:33;;;;;;;4.38;1.90;;;12.80;96.70;;;;;;5094047;28;20089;-75
2021/10/12 02:51:01;;;;;;;2.38;1.73;;;12.80;96.70;;;;;;5095147;28;20047;-75
2021/10/12 02:53:30;;;;;;;4.10;1.73;;;12.70;96.70;;;;;;5076241;28;20048;-75
2021/10/12 02:55:58;;;;;;;3.33;2.17;;;12.80;96.70;;;;;;5085224;28;20055;-76
2021/10/12 02:58:26;;;;;;;3.47;2.28;;;12.80;96.70;;;;;;5085272;28;20043;-76
2021/10/12 03:00:54;;;;;;;7.03;2.30;;;12.80;96.70;;;;;;5093835;28;20050;-76
2021/10/12 03:03:25;;;;;;;3.03;2.42;;;12.80;96.70;;;;;;5085814;28;20040;-76
2021/10/12 03:05:53;;;;;;;3.35;1.92;;;12.80;96.70;;;;;;5081003;28;20058;-76
2021/10/12 03:08:21;;;;;;;3.90;2.30;;;12.80;96.70;;;;;;5066831;28;20593;-76
2021/10/12 03:10:50;;;;;;;3.17;2.20;;;12.80;96.70;;;;;;5090488;28;20051;-76
2021/10/12 03:13:18;;;;;;;4.13;2.22;;;12.80;96.70;;;;;;5066735;28;20089;-76
2021/10/12 03:15:47;;;;;;;3.83;2.33;;;12.80;96.70;;;;;;5088631;28;20043;-76
2021/10/12 03:18:15;;;;;;;2.65;1.90;;;12.70;96.70;;;;;;5074037;28;20046;-75
2021/10/12 03:20:44;;;;;;;3.33;2.30;;;12.70;96.70;;;;;;5077702;28;20048;-76
2021/10/12 03:23:13;;;;;;;4.47;2.05;;;12.70;96.70;;;;;;5069008;28;20097;-77
2021/10/12 03:25:41;;;;;;;3.30;2.17;;;12.70;96.70;;;;;;5091671;28;20043;-76
2021/10/12 03:28:09;;;;;;;3.38;2.00;;;12.70;96.70;;;;;;5094137;28;20042;-77
2021/10/12 03:30:37;;;;;;;5.03;2.28;;;12.80;96.70;;;;;;5083605;28;20066;-77
2021/10/12 03:33:06;;;;;;;3.35;1.88;;;12.80;96.70;;;;;;5083682;28;20035;-77
2021/10/12 03:35:37;;;;;;;5.50;2.85;;;12.70;96.70;;;;;;5088095;28;20047;-77
2021/10/12 03:38:08;;;;;;;4.05;1.98;;;12.70;96.70;;;;;;5088945;28;20048;-77
2021/10/12 03:40:37;;;;;;;3.35;1.75;;;12.50;96.70;;;;;;5090767;28;20071;-78
2021/10/12 03:43:05;;;;;;;3.13;1.73;;;12.60;96.70;;;;;;5089617;28;20147;-77
2021/10/12 03:45:34;;;;;;;3.50;1.63;;;12.40;96.70;;;;;;5090188;28;20067;-78
2021/10/12 03:48:02;;;;;;;2.63;1.90;;;12.30;96.70;;;;;;5088975;28;20135;-76
2021/10/12 03:50:30;;;;;;;3.83;1.80;;;12.40;96.70;;;;;;5087429;28;20246;-77
2021/10/12 03:52:59;;;;;;;3.00;1.60;;;12.50;96.70;;;;;;5075664;28;20125;-77
2021/10/12 03:55:29;;;;;;;3.50;2.00;;;12.50;96.70;;;;;;5091561;28;20143;-77
2021/10/12 03:57:57;;;;;;;3.40;1.92;;;12.40;96.70;;;;;;5088778;28;20194;-77
2021/10/12 04:00:25;;;;;;;4.30;2.10;;;12.40;96.70;;;;;;5085930;28;20032;-77
2021/10/12 04:02:54;;;;;;;2.85;2.03;;;12.40;96.70;;;;;;5090638;28;20485;-77
2021/10/12 04:05:22;;;;;;;3.42;1.55;;;12.40;96.70;;;;;;5090541;28;20036;-77
2021/10/12 04:07:50;;;;;;;3.28;2.20;;;12.30;96.70;;;;;;5077807;28;20043;-76
2021/10/12 04:10:18;;;;;;;2.15;1.60;;;12.30;96.70;;;;;;5095086;28;20048;-77
2021/10/12 04:12:48;;;;;;;2.38;1.83;;;12.30;96.70;;;;;;5078605;28;20055;-77
2021/10/12 04:15:16;;;;;;;2.70;1.98;;;12.30;96.70;;;;;;5066199;28;20052;-76
2021/10/12 04:17:44;;;;;;;3.13;2.05;;;12.40;96.70;;;;;;5087601;28;20036;-77
2021/10/12 04:20:12;;;;;;;4.07;2.42;;;12.30;96.70;;;;;;5092386;28;20055;-77
2021/10/12 04:22:40;;;;;;;3.58;2.30;;;12.20;96.70;;;;;;5086516;28;20047;-76
2021/10/12 04:25:09;;;;;;;3.38;2.75;;;12.30;96.70;;;;;;5083743;28;20048;-77
2021/10/12 04:27:37;;;;;;;4.93;2.80;;;12.30;96.70;;;;;;5084322;28;20039;-77
2021/10/12 04:30:07;;;;;;;4.18;3.13;;;12.40;96.70;;;;;;5083521;28;20536;-76
2021/10/12 04:32:36;;;;;;;4.18;3.40;;;12.40;96.70;;;;;;5094712;28;20050;-76
2021/10/12 04:35:06;;;;;;;3.17;2.38;;;12.30;96.70;;;;;;5085784;28;20040;-77
2021/10/12 04:37:35;;;;;;;3.55;2.22;;;12.30;96.70;;;;;;5094317;28;20048;-80
2021/10/12 04:40:04;;;;;;;2.38;2.10;;;12.20;96.70;;;;;;5075946;28;20047;-77
2021/10/12 04:42:34;;;;;;;3.40;2.20;;;12.20;96.70;;;;;;5095257;28;20548;-76
2021/10/12 04:45:02;;;;;;;5.32;3.20;;;12.10;96.70;;;;;;5078290;28;20040;-77
2021/10/12 04:47:33;;;;;;;3.65;2.60;;;12.00;96.70;;;;;;5088335;28;20460;-77
2021/10/12 04:50:01;;;;;;;3.30;2.47;;;12.00;96.70;;;;;;5072169;28;20044;-77
2021/10/12 04:52:29;;;;;;;5.22;2.70;;;12.10;96.70;;;;;;5088935;28;20056;-77
2021/10/12 04:54:57;;;;;;;5.20;2.33;;;12.10;96.70;;;;;;5086879;28;20050;-77
2021/10/12 04:57:26;;;;;;;4.20;3.00;;;12.10;96.70;;;;;;5086526;28;20490;-77
2021/10/12 04:59:54;;;;;;;3.78;2.42;;;12.10;96.70;;;;;;5094288;28;20040;-77
2021/10/12 05:02:22;;;;;;;3.33;2.22;;;12.10;96.70;;;;;;5085295;28;20048;-76
2021/10/12 05:04:52;;;;;;;2.63;2.40;;;12.00;96.70;;;;;;5091402;28;20093;-77
2021/10/12 05:07:20;;;;;;;3.55;2.50;;;12.00;96.70;;;;;;5088641;28;20046;-77
2021/10/12 05:09:48;;;;;;;3.50;2.80;;;11.90;96.70;;;;;;5091333;28;20067;-77
2021/10/12 05:12:16;;;;;;;3.80;2.42;;;11.80;96.70;;;;;;5098024;28;20561;-76
2021/10/12 05:14:44;;;;;;;5.00;2.70;;;11.80;96.70;;;;;;5090594;28;20047;-76
2021/10/12 05:17:20;;;;;;;5.55;2.67;;;11.80;96.70;;;;;;5087251;28;20055;-77
2021/10/12 05:19:48;;;;;;;7.53;2.73;;;11.80;96.70;;;;;;5090840;28;20044;-76
2021/10/12 05:22:18;;;;;;;4.47;2.75;;;11.80;96.70;;;;;;5083638;28;20458;-77
2021/10/12 05:24:46;;;;;;;4.72;2.83;;;11.90;96.70;;;;;;5098780;28;20059;-76
2021/10/12 05:27:15;;;;;;;7.72;4.50;;;11.80;96.70;;;;;;5099306;28;20573;-76
2021/10/12 05:29:43;;;;;;;5.97;3.05;;;11.70;96.70;;;;;;5075285;28;20044;-76
2021/10/12 05:32:12;;;;;;;5.53;3.13;;;11.70;96.70;;;;;;5074146;28;20052;-77
2021/10/12 05:34:40;;;;;;;8.07;3.85;;;11.80;96.70;;;;;;5089281;28;20064;-76
2021/10/12 05:37:08;;;;;;;5.43;2.83;;;11.90;96.70;;;;;;5091523;28;20044;-76
2021/10/12 05:39:38;;;;;;;8.27;3.80;;;11.90;96.70;;;;;;5083450;28;20043;-77
2021/10/12 05:42:07;;;;;;;6.22;3.22;;;11.90;96.70;;;;;;5085153;28;20137;-76
2021/10/12 05:44:35;;;;;;;5.22;3.20;;;11.90;96.70;;;;;;5088309;28;20052;-76
2021/10/12 05:47:03;;;;;;;7.57;3.72;;;11.90;96.70;;;;;;5086372;28;20161;-76
2021/10/12 05:49:31;;;;;;;8.10;3.85;;;11.90;96.70;;;;;;5089589;28;20051;-77
2021/10/12 05:52:02;;;;;;;7.60;3.33;;;11.90;96.70;;;;;;5079311;28;20083;-77
2021/10/12 05:54:32;;;;;;;7.85;3.15;;;11.80;96.70;;;;;;5092531;28;20044;-76
2021/10/12 05:57:06;;;;;;;9.98;3.28;;;11.70;96.70;;;;;;5095914;28;20040;-76
2021/10/12 05:59:35;;;;;;;7.45;3.05;;;11.70;96.70;;;;;;5086067;28;20048;-77
2021/10/12 06:02:03;;;;;;;10.48;3.78;;;11.50;96.70;;;;;;5085218;28;20044;-77
2021/10/12 06:04:35;;;;;;;10.30;3.67;;;11.40;96.70;;;;;;5086803;28;20044;-77
2021/10/12 06:07:04;;;;;;;11.02;3.72;;;11.50;96.70;;;;;;5092895;28;20041;-76
2021/10/12 06:09:32;;;;;;;8.35;3.17;;;11.50;96.70;;;;;;5088776;28;20060;-77
2021/10/12 06:12:03;;;;;;;6.93;2.88;;;11.60;96.70;;;;;;5092576;28;20043;-76
2021/10/12 06:14:32;;;;;;;6.97;3.20;;;11.70;96.70;;;;;;5092896;28;20039;-77
2021/10/12 06:17:00;;;;;;;6.20;3.00;;;11.70;96.70;;;;;;5087976;28;20123;-77
2021/10/12 06:19:28;;;;;;;5.82;2.50;;;11.60;96.70;;;;;;5090520;28;20502;-77
2021/10/12 06:21:56;;;;;;;5.95;2.85;;;11.60;96.70;;;;;;5084353;28;20044;-77
2021/10/12 06:24:24;;;;;;;5.45;2.78;;;11.70;96.70;;;;;;5069374;28;20500;-77
2021/10/12 06:26:52;;;;;;;3.58;2.53;;;11.80;96.70;;;;;;5092138;28;20043;-77
2021/10/12 06:29:22;;;;;;;5.28;2.88;;;11.90;96.70;;;;;;5082334;28;20044;-76
2021/10/12 06:31:50;;;;;;;7.10;2.92;;;11.80;96.70;;;;;;5094205;28;20333;-77
2021/10/12 06:34:19;;;;;;;8.30;2.47;;;11.70;96.70;;;;;;5084177;28;20614;-75
2021/10/12 06:36:48;;;;;;;7.03;2.85;;;11.60;96.70;;;;;;5086140;28;20029;-75
2021/10/12 06:39:15;;;;;;;6.70;3.15;;;11.70;96.70;;;;;;5081378;28;20040;-76
2021/10/12 06:41:43;;;;;;;9.55;3.10;;;11.90;96.70;;;;;;5081608;28;20131;-75
2021/10/12 06:44:14;;;;;;;4.63;2.65;;;11.90;96.70;;;;;;5082137;28;20589;-77
2021/10/12 06:46:44;;;;;;;6.75;3.10;;;12.00;96.70;;;;;;5089776;28;20449;-76
2021/10/12 06:49:12;;;;;;;5.70;3.03;;;12.10;96.70;;;;;;5082519;28;20074;-76
2021/10/12 06:51:42;;;;;;;6.70;3.20;;;12.10;96.70;;;;;;5089588;28;20437;-75
2021/10/12 06:54:20;;;;;;;8.18;3.30;;;12.10;96.70;;;;;;5083803;27;20047;-75
2021/10/12 06:56:49;;;;;;;5.20;3.28;;;12.20;96.70;;;;;;5078950;28;20048;-76
2021/10/12 06:59:17;;;;;;;7.72;4.00;;;12.10;96.70;;;;;;5095773;28;20146;-75
2021/10/12 07:01:46;;;;;;;6.75;4.53;;;12.10;96.70;;;;;;5080779;28;20040;-75
2021/10/12 07:04:14;;;;;;;7.47;4.35;;;12.10;96.70;;;;;;5089791;28;20079;-76
2021/10/12 07:06:42;;;;;;;9.55;4.15;;;12.20;96.70;;;;;;5069281;28;20047;-75
2021/10/12 07:09:11;;;;;;;7.28;3.80;;;12.40;96.70;;;;;;5084346;28;20047;-75
2021/10/12 07:11:39;;;;;;;9.07;3.80;;;12.40;96.70;;;;;;5087416;28;20442;-76
2021/10/12 07:14:07;;;;;;;7.95;3.47;;;12.40;96.70;;;;;;5090681;28;20036;-76
2021/10/12 07:16:35;;;;;;;5.97;3.38;;;12.40;96.70;;;;;;5083924;28;20085;-76
2021/10/12 07:19:05;;;;;;;7.28;2.83;;;12.40;96.70;;;;;;5087248;28;20081;-75
2021/10/12 07:21:33;;;;;;;7.15;3.15;;;12.20;96.70;;;;;;5085434;28;20090;-76
2021/10/12 07:24:02;;;;;;;7.50;3.45;;;12.20;96.70;;;;;;5093645;28;20448;-76
2021/10/12 07:26:30;;;;;;;8.52;3.42;;;12.30;96.70;;;;;;5087704;28;20146;-76
2021/10/12 07:28:59;;;;;;;5.93;3.55;;;12.50;96.70;;;;;;5086865;28;20035;-76
2021/10/12 07:31:27;;;;;;;8.57;3.35;;;12.50;96.70;;;;;;5082462;28;20040;-74
2021/10/12 07:33:55;;;;;;;8.55;3.33;;;12.60;96.70;;;;;;5070132;28;20577;-75
2021/10/12 07:36:25;;;;;;;7.50;3.30;;;12.60;96.70;;;;;;5087754;28;20047;-75
2021/10/12 07:38:53;;;;;;;5.35;3.08;;;12.60;96.70;;;;;;5079070;28;20047;-75
2021/10/12 07:41:28;;;;;;;9.30;3.67;;;12.70;96.70;;;;;;5093575;28;20130;-75
2021/10/12 07:43:56;;;;;;;7.13;3.65;;;12.60;96.70;;;;;;5089296;28;20654;-77
2021/10/12 07:46:24;;;;;;;9.75;3.92;;;12.70;96.70;;;;;;5083409;28;20101;-77
2021/10/12 07:48:53;;;;;;;6.68;3.97;;;12.60;96.70;;;;;;5082097;28;20036;-76
2021/10/12 07:51:40;;;;;;;9.02;4.10;;;12.70;96.70;;;;;;5083477;28;20040;-77
2021/10/12 07:54:14;;;;;;;5.45;3.97;;;12.80;96.70;;;;;;5074632;28;20416;-76
2021/10/12 07:56:42;;;;;;;4.53;3.60;;;12.90;96.70;;;;;;5073581;28;20492;-77
2021/10/12 07:59:11;;;;;;;6.70;4.22;;;13.00;96.70;;;;;;5088490;28;20055;-79
2021/10/12 08:01:40;;;;;;;8.35;4.82;;;13.20;96.70;;;;;;5083105;28;20039;-79
2021/10/12 08:04:09;;;;;;;9.98;4.80;;;13.30;96.70;;;;;;5072819;28;20574;-79
2021/10/12 08:06:39;;;;;;;7.90;5.25;;;13.40;96.70;;;;;;5086070;28;20044;-87
2021/10/12 08:09:07;;;;;;;8.32;5.45;;;13.50;96.70;;;;;;5089132;28;20339;-78
2021/10/12 08:11:35;;;;;;;8.27;5.00;;;13.60;96.70;;;;;;5093212;28;20155;-77
2021/10/12 08:14:04;;;;;;;7.93;5.10;;;13.80;96.70;;;;;;5076407;28;20562;-77
2021/10/12 08:16:32;;;;;;;7.00;4.80;;;13.90;96.70;;;;;;5088964;28;20032;-78
2021/10/12 08:19:03;;;;;;;8.57;5.03;;;13.90;96.70;;;;;;5082890;28;20040;-81
2021/10/12 08:21:31;;;;;;;7.30;4.60;;;13.90;96.70;;;;;;5074009;28;20048;-78
2021/10/12 08:24:02;;;;;;;9.75;4.72;;;13.90;96.70;;;;;;5083872;28;20036;-78
2021/10/12 08:26:30;;;;;;;8.98;5.05;;;13.90;96.70;;;;;;5081280;28;20501;-79
2021/10/12 08:29:01;;;;;;;6.40;5.05;;;13.90;96.70;;;;;;5086624;28;20078;-78
2021/10/12 08:31:29;;;;;;;14.35;5.88;;;14.00;96.70;;;;;;5088551;28;20056;-78
2021/10/12 08:33:57;;;;;;;8.82;5.15;;;14.20;96.70;;;;;;5072299;28;20422;-77
2021/10/12 08:36:26;;;;;;;8.13;4.78;;;14.40;96.70;;;;;;5089134;28;20592;-80
2021/10/12 08:39:06;;;;;;;6.20;4.90;;;14.40;96.70;;;;;;5084199;28;20059;-78
2021/10/12 08:41:39;;;;;;;5.53;4.55;;;14.60;96.70;;;;;;5069654;28;20570;-78
2021/10/12 08:44:07;;;;;;;8.20;4.63;;;14.60;96.70;;;;;;5089376;28;20619;-78
2021/10/12 08:46:36;;;;;;;6.13;4.35;;;14.60;96.70;;;;;;5087845;28;20521;-79
2021/10/12 08:49:04;;;;;;;6.80;3.80;;;14.60;96.70;;;;;;5080950;28;20383;-79
2021/10/12 08:51:32;;;;;;;14.35;4.32;;;14.60;96.70;;;;;;5085781;28;20291;-78
2021/10/12 08:54:00;;;;;;;7.63;4.65;;;14.70;96.70;;;;;;5082953;28;20036;-77
2021/10/12 08:56:29;;;;;;;8.13;3.72;;;14.80;96.70;;;;;;5086613;28;20573;-82
2021/10/12 08:58:57;;;;;;;5.85;4.30;;;14.80;96.70;;;;;;5075372;28;20036;-82
2021/10/12 09:01:28;;;;;;;7.75;4.45;;;14.90;96.70;;;;;;5083932;28;20088;-84
2021/10/12 09:06:28;;;;;;;8.43;4.30;;;15.30;96.70;;;;;;5088015;28;20052;-85
2021/10/12 09:09:17;;;;;;;10.27;4.63;;;15.40;96.70;;;;;;5088312;28;20047;-88
2021/10/12 09:11:46;;;;;;;6.38;4.30;;;15.50;96.70;;;;;;5084559;28;20517;-84
2021/10/12 09:14:14;;;;;;;6.28;4.65;;;15.50;96.70;;;;;;5082690;28;20052;-86
2021/10/12 09:16:44;;;;;;;6.90;4.30;;;15.60;96.70;;;;;;5079133;28;20044;-81
2021/10/12 09:19:13;;;;;;;6.00;4.03;;;15.70;96.70;;;;;;5099582;28;20486;-80
2021/10/12 09:21:43;;;;;;;6.15;4.15;;;15.60;96.70;;;;;;5086566;28;20047;-80
2021/10/12 09:24:14;;;;;;;6.15;4.10;;;15.70;96.70;;;;;;5074468;28;20048;-79
2021/10/12 09:26:44;;;;;;;6.13;4.45;;;15.70;96.70;;;;;;5080217;28;20036;-78
2021/10/12 09:29:17;;;;;;;8.68;4.78;;;15.80;96.70;;;;;;5087772;28;20097;-80
2021/10/12 09:31:46;;;;;;;8.63;5.20;;;15.90;96.70;;;;;;5087873;28;20254;-80
2021/10/12 09:34:15;;;;;;;10.13;5.38;;;15.90;96.70;;;;;;5095680;28;20036;-80
2021/10/12 09:36:45;;;;;;;7.95;5.75;;;15.90;96.70;;;;;;5083679;28;20047;-80
2021/10/12 09:39:31;;;;;;;8.65;6.15;;;15.80;96.70;;;;;;5081603;28;20043;-80
2021/10/12 09:42:00;;;;;;;10.68;6.55;;;15.90;96.70;;;;;;5094348;28;20078;-81
2021/10/12 09:44:34;;;;;;;10.10;5.85;;;15.90;96.70;;;;;;5086359;28;20040;-80
2021/10/12 09:47:08;;;;;;;7.13;5.38;;;15.90;96.70;;;;;;5084462;28;20142;-80
2021/10/12 09:49:38;;;;;;;9.23;6.05;;;16.00;96.70;;;;;;5091414;28;20036;-79
2021/10/12 09:52:08;;;;;;;6.65;5.43;;;16.20;96.70;;;;;;5082735;28;20044;-80
2021/10/12 09:54:37;;;;;;;7.53;5.75;;;16.50;96.70;;;;;;5089287;27;20047;-80
2021/10/12 09:57:06;;;;;;;11.50;6.32;;;16.60;96.70;;;;;;5112232;27;20402;-79
2021/10/12 09:59:36;;;;;;;10.35;6.25;;;16.70;96.70;;;;;;5092036;27;20078;-79
2021/10/12 10:02:04;;;;;;;9.13;5.57;;;16.80;96.70;;;;;;5095500;27;20546;-80
2021/10/12 10:04:37;;;;;;;10.63;5.95;;;16.70;96.70;;;;;;5091796;27;20404;-80
2021/10/12 10:07:09;;;;;;;9.43;5.70;;;16.80;96.70;;;;;;5100539;28;20069;-79
2021/10/12 10:09:39;;;;;;;8.23;5.82;;;17.00;96.70;;;;;;5087521;27;20059;-80
2021/10/12 10:12:08;;;;;;;7.68;5.60;;;17.20;96.70;;;;;;5078915;27;20075;-79
2021/10/12 10:14:37;;;;;;;9.27;5.53;;;17.20;96.70;;;;;;5086016;27;20043;-79
2021/10/12 10:17:06;;;;;;;8.23;5.35;;;17.40;96.70;;;;;;5097955;27;20039;-79
2021/10/12 10:19:37;;;;;;;8.32;5.65;;;17.60;96.70;;;;;;5090112;28;20054;-79
2021/10/12 10:22:06;;;;;;;7.10;4.88;;;17.80;96.70;;;;;;5095464;28;20438;-80
2021/10/12 10:24:45;;;;;;;9.10;4.82;;;17.90;96.70;;;;;;5071791;27;20039;-81
2021/10/12 10:27:31;;;;;;;6.03;4.28;;;18.00;96.70;;;;;;5119050;27;20496;-80
2021/10/12 10:30:31;;;;;;;5.25;3.63;;;18.20;96.70;;;;;;5105783;27;20067;-81
2021/10/12 10:33:01;;;;;;;7.50;4.63;;;18.30;96.70;;;;;;5045281;27;20047;-81
2021/10/12 10:35:55;;;;;;;9.98;4.13;;;18.40;96.70;;;;;;5094655;27;20065;-81
2021/10/12 10:38:34;;;;;;;5.63;3.40;;;18.50;96.70;;;;;;5099421;28;20071;-81
2021/10/12 10:41:25;;;;;;;6.28;3.72;;;18.60;96.70;;;;;;5108743;27;20043;-80
2021/10/12 10:43:55;;;;;;;6.80;3.70;;;18.70;96.70;;;;;;5092381;27;20124;-80
2021/10/12 10:46:39;;;;;;;4.93;3.40;;;18.80;96.70;;;;;;5095211;28;20524;-78
2021/10/12 10:49:14;;;;;;;6.43;3.50;;;18.80;96.70;;;;;;5113684;27;20112;-79
2021/10/12 10:51:48;;;;;;;6.45;3.22;;;18.90;96.70;;;;;;5100346;27;20130;-78
2021/10/12 10:55:01;;;;;;;5.00;2.90;;;18.90;96.70;;;;;;5106596;27;20498;-79
2021/10/12 10:57:31;;;;;;;4.68;3.10;;;18.90;96.70;;;;;;5090694;28;20494;-79
2021/10/12 11:00:24;;;;;;;6.40;4.40;;;18.90;96.70;;;;;;5097118;28;20045;-79
2021/10/12 11:02:56;;;;;;;7.60;3.67;;;18.90;96.70;;;;;;5106380;27;20035;-79
2021/10/12 11:05:32;;;;;;;5.38;3.47;;;18.80;96.70;;;;;;5089832;28;20077;-79
2021/10/12 11:08:12;;;;;;;5.20;3.35;;;18.90;96.70;;;;;;5080020;28;20048;-80
2021/10/12 11:10:41;;;;;;;5.35;2.95;;;19.00;96.70;;;;;;5081724;28;20047;-80
2021/10/12 11:13:09;;;;;;;4.35;2.97;;;19.20;96.70;;;;;;5093306;28;20067;-79
2021/10/12 11:15:48;;;;;;;6.28;3.53;;;19.30;96.70;;;;;;5078675;27;20652;-80
2021/10/12 11:18:18;;;;;;;5.82;3.25;;;19.40;96.70;;;;;;5103886;27;20032;-79
2021/10/12 11:20:48;;;;;;;4.05;3.20;;;19.50;96.70;;;;;;5097537;27;20043;-79
2021/10/12 11:23:24;;;;;;;9.68;5.88;;;19.60;96.70;;;;;;5084537;27;20127;-79
2021/10/12 11:26:05;;;;;;;7.05;4.07;;;19.60;96.70;;;;;;5089416;27;20039;-79
2021/10/12 11:28:34;;;;;;;10.35;7.10;;;19.70;96.70;;;;;;5088563;28;20583;-79
2021/10/12 11:31:04;;;;;;;11.02;5.07;;;19.70;96.70;;;;;;5091652;28;20496;-79
2021/10/12 11:33:45;;;;;;;7.63;4.68;;;19.90;96.40;;;;;;5092479;27;20043;-78
2021/10/12 11:36:15;;;;;;;7.05;3.95;;;20.00;95.40;;;;;;5077734;28;20043;-78
2021/10/12 11:38:46;;;;;;;4.38;2.80;;;20.10;96.00;;;;;;5096690;27;20134;-79
2021/10/12 11:41:21;;;;;;;3.83;2.78;;;20.10;95.20;;;;;;5091168;28;20039;-79
2021/10/12 11:43:51;;;;;;;6.70;2.85;;;20.10;94.50;;;;;;5108535;27;20044;-79
2021/10/12 11:46:21;;;;;;;4.20;3.05;;;20.20;94.30;;;;;;5091739;28;20051;-79
2021/10/12 11:48:51;;;;;;;5.75;2.47;;;20.30;93.60;;;;;;5092534;27;20458;-79
2021/10/12 11:51:23;;;;;;;3.90;2.90;;;20.30;92.60;;;;;;5093827;27;20050;-80
2021/10/12 11:53:53;;;;;;;5.20;3.25;;;20.40;93.00;;;;;;5107810;27;20097;-79
2021/10/12 11:56:23;;;;;;;5.47;3.95;;;20.50;92.40;;;;;;5110443;28;20405;-79
2021/10/12 11:58:56;;;;;;;3.08;2.50;;;20.60;92.40;;;;;;5090509;28;20050;-79
2021/10/12 12:01:30;;;;;;;4.45;2.40;;;20.70;88.90;;;;;;5101646;28;20054;-79
2021/10/12 12:04:00;;;;;;;6.22;2.78;;;20.90;88.10;;;;;;5073697;28;20071;-79
2021/10/12 12:06:29;;;;;;;3.70;2.50;;;21.10;89.20;;;;;;5093531;28;20046;-79
2021/10/12 12:08:59;;;;;;;3.92;2.50;;;21.30;90.30;;;;;;5105917;28;20134;-80
2021/10/12 12:11:29;;;;;;;3.95;2.22;;;21.50;89.50;;;;;;5090368;28;20094;-79
2021/10/12 12:13:58;;;;;;;5.10;2.30;;;21.70;90.00;;;;;;5108141;28;20420;-79
2021/10/12 12:16:33;;;;;;;3.05;2.05;;;21.80;88.60;;;;;;5107616;28;20482;-80
2021/10/12 12:19:19;;;;;;;4.10;2.13;;;21.80;87.30;;;;;;5080933;28;20043;-79
2021/10/12 12:21:48;;;;;;;3.67;2.30;;;21.70;86.80;;;;;;5080106;28;20052;-79
2021/10/12 12:24:21;;;;;;;2.05;1.40;;;21.50;85.80;;;;;;5109562;28;20039;-79
2021/10/12 12:27:01;;;;;;;2.25;1.42;;;21.60;85.00;;;;;;5095708;28;20142;-79
2021/10/12 12:29:29;;;;;;;1.48;1.25;;;21.80;84.50;;;;;;5088118;28;20160;-79
2021/10/12 12:31:58;;;;;;;3.72;1.80;;;21.80;84.20;;;;;;5082412;28;20109;-79
2021/10/12 12:34:31;;;;;;;2.85;1.25;;;21.50;83.30;;;;;;5084505;28;20339;-79
2021/10/12 12:37:00;;;;;;;1.90;1.20;;;21.30;82.90;;;;;;5090383;28;20136;-79
2021/10/12 12:39:35;;;;;;;3.30;1.77;;;21.30;82.90;;;;;;5116446;28;20042;-79
2021/10/12 12:42:06;;;;;;;3.33;1.50;;;21.60;83.60;;;;;;5114073;28;20043;-80
2021/10/12 12:44:35;;;;;;;4.22;1.70;;;21.70;83.50;;;;;;5074710;28;20039;-79
2021/10/12 12:47:05;;;;;;;2.25;1.55;;;21.90;82.80;;;;;;5092245;28;20501;-79
2021/10/12 12:49:34;;;;;;;2.90;1.45;;;22.00;82.50;;;;;;5103724;27;20047;-80
2021/10/12 12:52:20;;;;;;;3.20;1.70;;;22.10;83.10;;;;;;5089513;27;20055;-80
2021/10/12 12:54:48;;;;;;;2.63;1.63;;;22.20;83.70;;;;;;5112690;27;20043;-79
2021/10/12 12:57:18;;;;;;;4.20;1.63;;;22.30;84.00;;;;;;5077855;28;20040;-79
2021/10/12 13:00:00;;;;;;;4.50;1.38;;;22.50;83.60;;;;;;5113072;27;20050;-79
2021/10/12 13:02:29;;;;;;;1.73;1.20;;;22.60;82.10;;;;;;5117377;27;20073;-79
2021/10/12 13:04:59;;;;;;;3.65;1.67;;;22.60;82.00;;;;;;5101495;27;20066;-79